Airfield :
LOGIN :

Register | Disclaimer

   EN    FR    IT 

 










Legend :    VFR   Marginal VFR   IFR   Intensive IFR   Very Intensive IFR
Visi :
Ceiling :
>= 8 km
>= 3000ft
5 to 8 km
1000 to 3000 ft
1500m to 5 km
500 to 1000 ft
800 to 1500m
200 to 500 ft
< 800m
< 200 ft
Symbols :   Thunderstorms  Fog  Heavy snow  Heavy precipitations  Wind > 20 kt
SIGMETs :     Misc.  Thunderstorms  Icing  Turbulence  Mountain Waves  Volcanic Ashes






- Airport Elevation : 464 ft
- IATA code : EVX


LFOE - Evreux

CURRENT METAR :
  • 150630Z AUTO 22007KT 9999 FEW014 11/10 Q1006 TEMPO BKN006

EXPIRED METARs :
  • 150600Z AUTO /////KT 9999 SCT018 11/10 Q1006
  • 150530Z AUTO 22008KT CAVOK 11/11 Q1006 TEMPO BKN006
  • 150500Z AUTO 21006KT 9999 FEW032 BKN250 12/11 Q1006 TEMPO BKN006
  • 150430Z AUTO 20008KT 9999 BKN034 13/12 Q1006 BECMG BKN012
  • 150400Z AUTO 19007KT 9999 BKN030 OVC036 13/12 Q1005

TAF AMD TAF LFOE
Valid from the 15 at 04:00 until the 16 at 03:00 UTC


150430Z 1504/1603 19006KT 9999 BKN030
TEMPO 1504/1508 BKN006
TEMPO 1514/1518 24015G25KT 4000 SHRA BKN030TCU



MET'MAP, your aeronautical weather chart ! - Copyright ORBIFLY December 2007 - Disclaimer

ORBIFLY MET'MAP TEAM :

Programming & Development : Alexandra Zaïnal
Concept & Development : Baudouin d'Aumeries
Co-Development & Prog : Marc-Olivier Méhu
Technical & hardware support : Manuel Goepfert

Contact : metmap@orbifly.com




SOURCES & CREDITS :

   NOAA